METAR Data
IDs: Format: Raw Decoded Include TAF

Data at: 0636 UTC 01 Aug 2021

EKRK 010620Z AUTO 24009KT 210V270 9999 NCD 16/12 Q1003